Time;durP1;ratioP1;P1;durP2;ratioP2;P2;SDS_P1;SDS_P2;PMS_P1;PMS_P2;Temp;Humidity;BMP_temperature;BMP_pressure;BME280_temperature;BME280_humidity;BME280_pressure;Samples;Min_cycle;Max_cycle;Signal;HPM_P1;HPM_P2
2021/12/18 00:02:13;;;;;;;9.30;4.03;;;;;;;6.60;100.00;103189.94;4970860;28;20050;-88
2021/12/18 00:04:41;;;;;;;9.75;4.75;;;;;;;6.59;100.00;103195.94;4973028;28;20065;-85
2021/12/18 00:07:10;;;;;;;8.77;4.95;;;;;;;6.58;100.00;103196.81;4973732;28;20045;-86
2021/12/18 00:09:37;;;;;;;6.05;4.47;;;;;;;6.55;100.00;103195.75;4973318;28;20539;-89
2021/12/18 00:12:09;;;;;;;5.43;3.72;;;;;;;6.52;100.00;103206.91;4966684;28;20053;-87
2021/12/18 00:14:36;;;;;;;6.47;3.92;;;;;;;6.54;100.00;103204.38;4976083;28;20045;-85
2021/12/18 00:17:03;;;;;;;7.82;4.13;;;;;;;6.54;100.00;103210.44;4972201;28;20050;-84
2021/12/18 00:19:31;;;;;;;7.75;5.03;;;;;;;6.56;100.00;103213.16;4974069;28;20046;-88
2021/12/18 00:22:01;;;;;;;6.68;4.63;;;;;;;6.55;100.00;103201.84;4972999;28;20057;-87
2021/12/18 00:24:29;;;;;;;5.10;3.47;;;;;;;6.56;100.00;103201.03;4956306;28;20057;-86
2021/12/18 00:26:55;;;;;;;7.03;4.97;;;;;;;6.55;100.00;103206.16;4961833;28;20061;-86
2021/12/18 00:29:22;;;;;;;6.93;4.10;;;;;;;6.54;100.00;103213.06;4986567;28;20045;-87
2021/12/18 00:31:49;;;;;;;4.70;3.13;;;;;;;6.53;100.00;103212.97;4969766;28;20066;-86
2021/12/18 00:34:15;;;;;;;4.10;3.58;;;;;;;6.53;100.00;103211.28;4958835;28;20050;-87
2021/12/18 00:36:43;;;;;;;4.82;2.80;;;;;;;6.52;100.00;103212.09;4964432;28;20488;-89
2021/12/18 00:39:11;;;;;;;4.32;2.92;;;;;;;6.52;100.00;103206.91;4957283;28;20741;-88
2021/12/18 00:41:59;;;;;;;3.22;2.05;;;;;;;6.50;100.00;103213.72;4986381;28;20500;-85
2021/12/18 00:44:29;;;;;;;4.10;2.53;;;;;;;6.49;100.00;103222.34;4979326;28;20070;-89
2021/12/18 00:46:55;;;;;;;3.67;2.75;;;;;;;6.49;100.00;103218.88;4966762;28;22676;-88
2021/12/18 00:49:24;;;;;;;3.60;2.33;;;;;;;6.50;100.00;103221.53;4972258;28;20107;-86
2021/12/18 00:51:52;;;;;;;3.38;2.80;;;;;;;6.50;100.00;103218.94;4967004;28;20046;-86
2021/12/18 00:54:18;;;;;;;5.47;2.85;;;;;;;6.50;100.00;103218.94;4955331;28;20196;-85
2021/12/18 00:56:45;;;;;;;4.40;2.67;;;;;;;6.50;100.00;103223.25;4988344;28;20041;-85
2021/12/18 00:59:12;;;;;;;3.65;2.53;;;;;;;6.50;100.00;103218.06;4984467;28;20074;-89
2021/12/18 01:01:38;;;;;;;4.78;2.20;;;;;;;6.48;100.00;103217.06;4978728;28;20061;-88
2021/12/18 01:04:06;;;;;;;5.38;3.20;;;;;;;6.48;100.00;103212.78;4988718;28;20101;-89
2021/12/18 01:06:38;;;;;;;5.90;3.25;;;;;;;6.49;100.00;103214.53;5010328;28;20037;-88
2021/12/18 01:09:06;;;;;;;5.20;3.50;;;;;;;6.47;100.00;103213.59;4982081;28;20050;-90
2021/12/18 01:11:35;;;;;;;3.78;2.88;;;;;;;6.48;100.00;103215.38;4980981;28;20082;-89
2021/12/18 01:14:32;;;;;;;3.88;3.08;;;;;;;6.47;100.00;103216.19;4969724;28;20492;-90
2021/12/18 01:22:49;;;;;;;8.18;3.13;;;;;;;6.48;100.00;103217.97;5007215;28;20149;-90
2021/12/18 01:25:20;;;;;;;8.20;3.65;;;;;;;6.48;100.00;103217.06;5007528;28;20043;-87
2021/12/18 01:27:48;;;;;;;5.07;3.10;;;;;;;6.46;100.00;103220.47;4985169;28;20057;-89
2021/12/18 01:30:16;;;;;;;6.45;3.45;;;;;;;6.49;100.00;103226.66;4975393;28;20483;-88
2021/12/18 01:35:25;;;;;;;7.05;2.72;;;;;;;6.43;100.00;103225.53;4987624;28;20058;-84
2021/12/18 01:37:52;;;;;;;3.80;2.75;;;;;;;6.43;100.00;103233.34;4986441;28;20523;-85
2021/12/18 01:40:21;;;;;;;3.55;3.13;;;;;;;6.41;100.00;103229.81;4999524;28;20105;-87
2021/12/18 01:44:12;;;;;;;4.40;2.92;;;;;;;6.41;100.00;103231.50;4991418;28;20045;-88
2021/12/18 01:46:11;;;;;;;5.07;2.53;;;;;;;6.40;100.00;103233.22;4996567;28;20046;-88
2021/12/18 01:51:25;;;;;;;2.78;1.70;;;;;;;6.33;100.00;103240.63;4947292;28;20049;-87
2021/12/18 01:53:56;;;;;;;1.85;1.35;;;;;;;6.32;100.00;103225.84;4991095;28;20149;-87
2021/12/18 01:56:26;;;;;;;2.10;1.60;;;;;;;6.31;100.00;103230.16;4964418;28;20053;-86
2021/12/18 01:58:54;;;;;;;2.72;1.45;;;;;;;6.29;100.00;103230.06;4978275;28;20128;-87
2021/12/18 02:01:22;;;;;;;2.17;1.52;;;;;;;6.29;100.00;103223.97;4982093;28;20599;-88
2021/12/18 02:03:52;;;;;;;2.10;1.50;;;;;;;6.29;100.00;103223.97;4981210;28;21003;-87
2021/12/18 02:06:20;;;;;;;2.22;1.70;;;;;;;6.29;100.00;103219.66;4993129;28;20038;-86
2021/12/18 02:08:47;;;;;;;1.85;1.67;;;;;;;6.28;100.00;103216.97;4976784;28;20104;-83
2021/12/18 02:11:26;;;;;;;3.00;1.90;;;;;;;6.28;100.00;103215.28;4960196;28;20128;-86
2021/12/18 02:19:37;;;;;;;3.88;2.42;;;;;;;6.29;100.00;103211.84;4987255;28;20038;-88
2021/12/18 02:22:07;;;;;;;3.72;2.42;;;;;;;6.29;100.00;103214.44;4960135;28;20054;-85
2021/12/18 02:24:34;;;;;;;5.25;2.85;;;;;;;6.32;100.00;103218.03;4959457;28;20077;-87
2021/12/18 02:27:06;;;;;;;4.43;2.65;;;;;;;6.32;100.00;103208.50;4963627;28;20578;-89
2021/12/18 02:29:36;;;;;;;3.90;2.28;;;;;;;6.32;100.00;103210.22;4956025;28;20049;-86
2021/12/18 02:32:06;;;;;;;4.90;2.90;;;;;;;6.29;100.00;103206.63;4988936;28;20161;-86
2021/12/18 02:34:37;;;;;;;4.57;3.08;;;;;;;6.30;100.00;103207.56;4972083;28;20882;-85
2021/12/18 02:37:06;;;;;;;5.28;3.38;;;;;;;6.28;100.00;103201.38;4958152;28;20069;-85
2021/12/18 02:40:44;;;;;;;6.13;3.58;;;;;;;6.27;100.00;103203.09;4974699;28;20050;-88
2021/12/18 02:42:33;;;;;;;4.03;2.92;;;;;;;6.25;100.00;103203.81;4982089;28;20053;-91
2021/12/18 02:45:06;;;;;;;8.88;3.88;;;;;;;6.23;100.00;103195.94;4952039;28;20627;-86
2021/12/18 02:47:33;;;;;;;6.63;3.10;;;;;;;6.23;100.00;103197.63;4969602;28;20057;-86
2021/12/18 02:50:00;;;;;;;5.03;2.92;;;;;;;6.21;100.00;103186.28;4986243;28;20313;-84
2021/12/18 02:52:31;;;;;;;5.30;3.25;;;;;;;6.20;100.00;103184.50;4988213;28;20038;-86
2021/12/18 02:54:58;;;;;;;3.10;2.13;;;;;;;6.18;100.00;103184.44;4952964;28;20054;-88
2021/12/18 02:57:25;;;;;;;4.65;2.80;;;;;;;6.16;100.00;103185.16;4985541;28;20884;-85
2021/12/18 02:59:57;;;;;;;6.55;3.50;;;;;;;6.16;100.00;103186.03;4965906;28;20073;-85
2021/12/18 03:02:25;;;;;;;6.72;3.08;;;;;;;6.17;100.00;103173.94;4985738;28;20065;-89
2021/12/18 03:04:56;;;;;;;6.82;3.47;;;;;;;6.17;100.00;103179.16;4986128;28;20447;-89
2021/12/18 03:07:25;;;;;;;9.98;3.45;;;;;;;6.17;100.00;103177.44;4984201;28;20057;-89
2021/12/18 03:26:12;;;;;;;6.82;3.50;;;;;;;6.19;100.00;103165.41;4958285;28;20056;-87
2021/12/18 03:28:39;;;;;;;6.68;3.33;;;;;;;6.18;100.00;103163.63;4975519;28;21384;-89
2021/12/18 03:31:06;;;;;;;6.05;3.05;;;;;;;6.19;100.00;103164.50;4959349;28;20046;-87
2021/12/18 03:33:35;;;;;;;4.85;3.25;;;;;;;6.17;100.00;103164.44;4973457;28;20261;-87
2021/12/18 03:36:01;;;;;;;5.65;3.20;;;;;;;6.17;100.00;103163.53;4975563;28;20547;-86
2021/12/18 03:38:29;;;;;;;5.72;3.22;;;;;;;6.13;100.00;103158.16;4969765;28;20050;-87
2021/12/18 03:40:56;;;;;;;7.00;3.30;;;;;;;6.12;100.00;103164.19;4973759;28;20041;-86
2021/12/18 03:43:22;;;;;;;5.80;3.45;;;;;;;6.11;100.00;103169.31;4971899;28;20061;-88
2021/12/18 03:45:49;;;;;;;3.50;2.35;;;;;;;6.10;100.00;103170.13;4972502;28;20060;-85
2021/12/18 03:48:16;;;;;;;4.95;3.15;;;;;;;6.10;100.00;103164.91;4976123;28;20034;-85
2021/12/18 03:50:46;;;;;;;5.63;3.03;;;;;;;6.11;100.00;103169.31;4984332;28;20057;-88
2021/12/18 03:53:16;;;;;;;8.73;4.05;;;;;;;6.10;100.00;103165.84;4975569;28;20057;-89
2021/12/18 03:55:42;;;;;;;6.07;4.35;;;;;;;6.09;100.00;103169.25;4971912;28;20048;-85
2021/12/18 03:58:10;;;;;;;7.07;3.95;;;;;;;6.10;100.00;103167.53;4973495;28;20049;-85
2021/12/18 04:00:36;;;;;;;6.90;4.05;;;;;;;6.09;100.00;103171.84;4955830;28;20129;-87
2021/12/18 04:03:05;;;;;;;5.10;3.83;;;;;;;6.07;100.00;103169.97;4967007;28;20042;-89
2021/12/18 04:05:32;;;;;;;5.53;3.60;;;;;;;6.03;100.00;103173.25;4991102;28;20176;-86
2021/12/18 04:08:08;;;;;;;4.90;3.30;;;;;;;6.00;100.00;103168.78;4970986;28;20148;-90
2021/12/18 04:10:40;;;;;;;7.22;3.60;;;;;;;5.96;100.00;103172.03;4972398;28;20145;-86
2021/12/18 04:13:08;;;;;;;5.22;3.75;;;;;;;5.94;100.00;103158.94;4974402;28;20045;-90
2021/12/18 04:15:36;;;;;;;6.38;3.83;;;;;;;5.91;100.00;103166.56;4958330;28;20098;-91
2021/12/18 04:18:03;;;;;;;7.70;4.45;;;;;;;5.88;100.00;103171.63;5009765;28;20273;-91
2021/12/18 04:20:29;;;;;;;7.00;4.28;;;;;;;5.84;100.00;103171.38;4962477;28;20065;-88
2021/12/18 04:22:56;;;;;;;7.32;4.28;;;;;;;5.81;100.00;103172.09;4979702;28;20049;-85
2021/12/18 04:25:24;;;;;;;6.88;3.97;;;;;;;5.78;100.00;103172.84;4989470;28;20053;-87
2021/12/18 04:27:51;;;;;;;6.15;3.70;;;;;;;5.77;100.00;103175.38;4957984;28;20068;-86
2021/12/18 04:30:18;;;;;;;5.40;3.63;;;;;;;5.76;100.00;103170.97;4977135;28;20062;-86
2021/12/18 04:32:45;;;;;;;6.80;4.80;;;;;;;5.75;100.00;103166.59;4989483;28;20519;-89
2021/12/18 04:35:13;;;;;;;8.40;4.70;;;;;;;5.74;100.00;103167.44;4961874;28;20050;-84
2021/12/18 04:37:39;;;;;;;5.45;3.42;;;;;;;5.73;100.00;103166.50;4977818;28;20040;-88
2021/12/18 04:40:07;;;;;;;9.13;4.65;;;;;;;5.74;100.00;103165.72;4996331;28;20052;-89
2021/12/18 04:42:34;;;;;;;9.20;4.88;;;;;;;5.75;100.00;103169.19;4983611;28;20077;-87
2021/12/18 04:45:01;;;;;;;8.52;4.72;;;;;;;5.74;100.00;103163.09;4976447;28;20141;-89
2021/12/18 04:47:28;;;;;;;6.70;4.10;;;;;;;5.75;100.00;103157.09;4978874;28;20038;-87
2021/12/18 04:49:59;;;;;;;7.15;4.28;;;;;;;5.75;100.00;103156.19;4983509;28;20037;-88
2021/12/18 04:52:29;;;;;;;8.30;4.40;;;;;;;5.76;100.00;103150.19;4975113;28;20171;-89
2021/12/18 04:54:59;;;;;;;9.65;4.97;;;;;;;5.75;100.00;103145.78;4960156;28;20137;-89
2021/12/18 04:57:26;;;;;;;8.52;4.53;;;;;;;5.74;100.00;103150.13;4977788;28;20060;-91
2021/12/18 04:59:54;;;;;;;7.18;4.75;;;;;;;5.73;100.00;103148.31;4972590;28;20463;-89
2021/12/18 05:02:24;;;;;;;11.38;5.00;;;;;;;5.72;100.00;103146.56;4987812;28;20088;-86
2021/12/18 05:04:52;;;;;;;7.80;4.65;;;;;;;5.74;100.00;103146.63;4984493;28;20058;-90
2021/12/18 05:07:19;;;;;;;12.65;5.60;;;;;;;5.75;100.00;103145.78;4990420;28;20148;-86
2021/12/18 05:09:51;;;;;;;6.93;4.03;;;;;;;5.75;100.00;103143.19;4979503;28;20049;-90
2021/12/18 05:12:18;;;;;;;10.70;5.90;;;;;;;5.74;100.00;103144.03;4996379;28;20046;-90
2021/12/18 05:14:44;;;;;;;11.77;5.03;;;;;;;5.76;100.00;103150.19;5014495;28;20105;-89
2021/12/18 05:17:11;;;;;;;14.55;6.40;;;;;;;5.76;100.00;103142.38;4976557;28;20049;-89
2021/12/18 05:19:38;;;;;;;8.10;4.30;;;;;;;5.75;100.00;103141.50;4981720;28;20196;-88
2021/12/18 05:22:06;;;;;;;11.13;4.72;;;;;;;5.76;100.00;103151.09;4997307;28;20042;-87
2021/12/18 05:24:33;;;;;;;6.40;4.03;;;;;;;5.74;100.00;103150.13;4983522;28;20066;-88
2021/12/18 05:27:00;;;;;;;7.68;4.93;;;;;;;5.73;100.00;103148.31;4990527;28;20050;-89
2021/12/18 05:29:27;;;;;;;8.02;4.70;;;;;;;5.73;100.00;103150.91;4996864;28;20454;-86
2021/12/18 05:31:53;;;;;;;9.40;5.03;;;;;;;5.73;100.00;103152.63;4983340;28;20077;-86
2021/12/18 05:34:23;;;;;;;5.82;4.07;;;;;;;5.71;100.00;103141.25;4955596;28;20046;-88
2021/12/18 05:39:51;;;;;;;7.57;4.18;;;;;;;5.72;100.00;103143.97;4947023;28;20069;-87
2021/12/18 05:42:19;;;;;;;19.27;8.27;;;;;;;5.74;100.00;103157.91;4981061;28;20052;-86
2021/12/18 05:44:47;;;;;;;6.90;4.57;;;;;;;5.76;100.00;103147.59;4997568;28;20060;-86
2021/12/18 05:47:14;;;;;;;7.25;4.30;;;;;;;5.75;100.00;103157.09;4977338;28;20056;-88
2021/12/18 05:49:42;;;;;;;8.68;5.15;;;;;;;5.73;100.00;103148.31;4981751;28;20092;-87
2021/12/18 05:52:12;;;;;;;7.30;4.78;;;;;;;5.73;100.00;103142.25;4980367;28;20077;-89
2021/12/18 05:54:39;;;;;;;9.63;5.15;;;;;;;5.73;100.00;103150.91;4977505;28;20134;-88
2021/12/18 05:57:09;;;;;;;8.70;5.30;;;;;;;5.73;100.00;103148.31;4980948;28;20042;-86
2021/12/18 05:59:37;;;;;;;9.60;5.55;;;;;;;5.73;100.00;103150.91;4981058;28;20034;-87
2021/12/18 06:02:05;;;;;;;7.47;5.47;;;;;;;5.71;100.00;103151.66;4964041;28;20132;-86
2021/12/18 06:04:34;;;;;;;7.47;5.03;;;;;;;5.66;100.00;103145.31;4975886;28;20056;-85
2021/12/18 06:07:08;;;;;;;9.77;5.60;;;;;;;5.65;100.00;103149.66;4974664;28;20057;-86
2021/12/18 06:09:41;;;;;;;6.32;3.63;;;;;;;5.64;100.00;103142.66;4977033;28;20045;-86
2021/12/18 06:12:08;;;;;;;8.00;4.50;;;;;;;5.64;100.00;103150.44;4979507;28;20042;-84
2021/12/18 06:14:35;;;;;;;8.45;3.95;;;;;;;5.64;100.00;103142.66;4995279;28;20065;-86
2021/12/18 06:17:02;;;;;;;7.05;3.42;;;;;;;5.62;100.00;103139.97;4974634;28;20637;-86
2021/12/18 06:19:31;;;;;;;3.60;2.22;;;;;;;5.60;100.00;103149.41;4962188;28;20053;-87
2021/12/18 06:21:58;;;;;;;8.88;3.30;;;;;;;5.59;100.00;103149.31;4997035;28;20445;-85
2021/12/18 06:24:36;;;;;;;7.10;2.83;;;;;;;5.58;100.00;103142.34;4992458;28;20584;-88
2021/12/18 06:27:04;;;;;;;7.00;3.60;;;;;;;5.56;100.00;103144.84;4962906;28;20050;-86
2021/12/18 06:29:33;;;;;;;4.38;2.70;;;;;;;5.56;100.00;103144.84;4958663;28;20086;-87
2021/12/18 06:32:00;;;;;;;6.57;2.83;;;;;;;5.54;100.00;103143.00;4970147;28;20719;-86
2021/12/18 06:34:27;;;;;;;12.40;7.05;;;;;;;5.54;100.00;103148.19;4970513;28;20058;-87
2021/12/18 06:36:55;;;;;;;7.45;3.25;;;;;;;5.53;100.00;103144.72;4968819;28;20038;-86
2021/12/18 06:39:22;;;;;;;7.85;3.40;;;;;;;5.54;100.00;103137.78;4972417;28;20046;-87
2021/12/18 06:41:49;;;;;;;8.73;4.40;;;;;;;5.54;100.00;103143.00;4951497;28;20058;-85
2021/12/18 06:44:16;;;;;;;8.80;5.10;;;;;;;5.55;100.00;103140.47;4956926;28;20043;-85
2021/12/18 06:46:43;;;;;;;8.10;6.20;;;;;;;5.57;100.00;103143.16;4975307;28;20062;-88
2021/12/18 06:49:11;;;;;;;7.45;4.03;;;;;;;5.58;100.00;103143.25;4968637;28;20651;-87
2021/12/18 06:51:39;;;;;;;6.43;3.88;;;;;;;5.59;100.00;103150.22;4955832;28;20089;-89
2021/12/18 06:54:06;;;;;;;7.55;4.65;;;;;;;5.61;100.00;103147.72;4982661;28;20046;-89
2021/12/18 06:56:33;;;;;;;6.65;3.42;;;;;;;5.63;100.00;103152.16;4962318;28;20046;-89
2021/12/18 06:59:05;;;;;;;7.55;3.85;;;;;;;5.65;100.00;103148.75;4974599;28;20042;-85
2021/12/18 07:01:33;;;;;;;9.40;3.50;;;;;;;5.66;100.00;103154.03;4969429;28;20056;-86
2021/12/18 07:03:59;;;;;;;14.48;6.15;;;;;;;5.66;100.00;103147.94;4952961;28;20540;-89
2021/12/18 07:06:26;;;;;;;6.82;3.65;;;;;;;5.71;100.00;103151.66;4981554;28;20031;-92
2021/12/18 07:08:53;;;;;;;10.75;4.20;;;;;;;5.70;100.00;103155.09;4976005;28;21774;-89
2021/12/18 07:11:20;;;;;;;8.30;3.60;;;;;;;5.67;100.00;103145.44;4974864;28;20058;-86
2021/12/18 07:13:48;;;;;;;5.95;3.53;;;;;;;5.67;100.00;103147.13;4971897;28;20047;-85
2021/12/18 07:16:14;;;;;;;7.72;3.85;;;;;;;5.67;100.00;103149.72;4967579;28;20084;-89
2021/12/18 07:18:41;;;;;;;8.40;3.22;;;;;;;5.69;100.00;103146.38;4973816;28;20129;-86
2021/12/18 07:21:18;;;;;;;3.92;2.35;;;;;;;5.68;100.00;103149.78;4960935;28;20108;-87
2021/12/18 07:23:45;;;;;;;4.95;2.83;;;;;;;5.69;100.00;103155.91;4945823;28;20057;-85
2021/12/18 07:26:12;;;;;;;4.93;3.28;;;;;;;5.71;100.00;103154.25;4969799;28;20047;-88
2021/12/18 07:39:34;;;;;;;4.30;2.25;;;;;;;5.72;100.00;103158.66;6282196;22;1318132;-84
2021/12/18 07:42:01;;;;;;;6.15;3.28;;;;;;;5.70;100.00;103155.09;6308920;22;20068;-84
2021/12/18 07:44:28;;;;;;;6.15;3.90;;;;;;;5.69;100.00;103161.09;6305853;22;20022;-84
2021/12/18 07:46:55;;;;;;;6.57;3.13;;;;;;;5.69;100.00;103151.59;6266541;22;20107;-84
2021/12/18 07:49:22;;;;;;;6.25;3.83;;;;;;;5.69;100.00;103154.19;6245845;22;20023;-84
2021/12/18 07:51:49;;;;;;;6.68;3.67;;;;;;;5.71;100.00;103154.25;6272949;22;20018;-83
2021/12/18 07:54:15;;;;;;;8.23;4.97;;;;;;;5.73;100.00;103161.31;6247411;22;20023;-86
2021/12/18 07:56:43;;;;;;;10.18;5.03;;;;;;;5.71;100.00;103154.25;6243669;22;20470;-84
2021/12/18 07:59:10;;;;;;;11.25;5.45;;;;;;;5.73;100.00;103152.63;6244821;22;20022;-86
2021/12/18 08:01:36;;;;;;;8.70;4.90;;;;;;;5.71;100.00;103154.25;6268259;22;20027;-86
2021/12/18 08:04:03;;;;;;;6.78;4.78;;;;;;;5.73;100.00;103155.25;6244420;22;20057;-85
2021/12/18 08:06:31;;;;;;;12.05;4.43;;;;;;;5.72;100.00;103154.34;6248214;22;20072;-86
2021/12/18 08:08:57;;;;;;;9.02;5.22;;;;;;;5.71;100.00;103157.75;6270794;22;20023;-85
2021/12/18 08:11:24;;;;;;;8.25;4.85;;;;;;;5.74;100.00;103157.03;6268312;22;20022;-86
2021/12/18 08:13:50;;;;;;;9.65;4.50;;;;;;;5.74;100.00;103155.31;6246510;22;20521;-85
2021/12/18 08:16:17;;;;;;;8.43;4.82;;;;;;;5.76;100.00;103156.28;6270022;22;20110;-86
2021/12/18 08:18:44;;;;;;;10.35;4.80;;;;;;;5.78;100.00;103144.25;6297236;22;20019;-86
2021/12/18 08:21:10;;;;;;;8.55;4.50;;;;;;;5.81;100.00;103148.72;6270659;22;20022;-86
2021/12/18 08:23:37;;;;;;;7.90;4.90;;;;;;;5.80;100.00;103150.44;6271655;22;20080;-86
2021/12/18 08:26:06;;;;;;;8.20;4.25;;;;;;;5.85;100.00;103154.97;6271984;22;20454;-85
2021/12/18 08:28:33;;;;;;;7.22;3.90;;;;;;;5.84;100.00;103151.50;6271674;22;20019;-88
2021/12/18 08:31:00;;;;;;;6.45;3.95;;;;;;;5.85;100.00;103157.56;6246246;22;20385;-86
2021/12/18 08:33:27;;;;;;;6.03;3.03;;;;;;;5.85;100.00;103153.25;6295190;22;20046;-87
2021/12/18 08:35:54;;;;;;;6.65;3.53;;;;;;;5.88;100.00;103152.50;6274235;22;20115;-85
2021/12/18 08:38:20;;;;;;;4.38;3.13;;;;;;;5.90;100.00;103158.69;6296449;22;20746;-86
2021/12/18 08:40:47;;;;;;;6.85;3.45;;;;;;;5.91;100.00;103158.78;6288438;22;20030;-85
2021/12/18 08:43:14;;;;;;;6.18;3.35;;;;;;;5.90;100.00;103149.19;6290943;22;20015;-86
2021/12/18 08:45:40;;;;;;;5.15;3.55;;;;;;;5.91;100.00;103155.28;6260842;22;20030;-86
2021/12/18 08:48:07;;;;;;;5.03;3.03;;;;;;;5.90;100.00;103149.19;6263071;22;20019;-85
2021/12/18 08:50:33;;;;;;;3.35;1.98;;;;;;;5.89;100.00;103157.81;6261104;22;20019;-86
2021/12/18 08:53:00;;;;;;;4.05;2.35;;;;;;;5.87;100.00;103149.03;6262745;22;20027;-85
2021/12/18 08:55:27;;;;;;;4.10;2.05;;;;;;;5.89;100.00;103147.41;6241106;22;20076;-85
2021/12/18 08:57:54;;;;;;;3.35;2.75;;;;;;;5.92;100.00;103147.56;6286083;22;20047;-86
2021/12/18 09:00:26;;;;;;;4.93;2.50;;;;;;;5.93;100.00;103145.84;6262581;22;20027;-86
2021/12/18 09:02:57;;;;;;;6.43;3.78;;;;;;;5.92;100.00;103144.97;6262028;22;20393;-86
2021/12/18 09:05:24;;;;;;;8.55;5.18;;;;;;;5.91;100.00;103143.16;6263046;22;20323;-86
2021/12/18 09:07:52;;;;;;;4.28;2.65;;;;;;;5.92;100.00;103142.38;6265019;22;20604;-86
2021/12/18 09:10:20;;;;;;;2.47;2.03;;;;;;;5.89;100.00;103144.81;6259415;22;20042;-86
2021/12/18 09:12:47;;;;;;;3.05;2.47;;;;;;;5.88;100.00;103143.03;6238341;22;20015;-85
2021/12/18 09:15:14;;;;;;;4.57;2.58;;;;;;;5.87;100.00;103138.63;6235205;22;20114;-86
2021/12/18 09:17:40;;;;;;;4.35;1.92;;;;;;;5.87;100.00;103135.16;6239632;22;20023;-86
2021/12/18 09:20:08;;;;;;;2.78;1.85;;;;;;;5.83;100.00;103134.09;6236312;22;20515;-86
2021/12/18 09:22:35;;;;;;;2.17;1.58;;;;;;;5.84;100.00;103137.59;6236779;22;20019;-85
2021/12/18 09:25:05;;;;;;;4.43;2.22;;;;;;;5.80;100.00;103141.72;6238766;22;20029;-86
2021/12/18 09:27:36;;;;;;;2.83;2.03;;;;;;;5.77;100.00;103137.25;6236281;22;20083;-86
2021/12/18 09:30:11;;;;;;;2.95;1.90;;;;;;;5.82;100.00;103137.50;6261799;22;20275;-84
2021/12/18 09:32:41;;;;;;;2.67;2.08;;;;;;;5.87;100.00;103138.63;6257411;22;20405;-85
2021/12/18 09:35:09;;;;;;;5.28;2.42;;;;;;;5.91;100.00;103145.78;6238204;22;20054;-85
2021/12/18 09:37:36;;;;;;;2.38;1.90;;;;;;;5.95;100.00;103139.91;6236381;22;20029;-86
2021/12/18 09:40:06;;;;;;;5.15;2.08;;;;;;;5.99;100.00;103140.13;6257519;22;20036;-84
2021/12/18 09:42:33;;;;;;;3.92;2.00;;;;;;;5.97;100.00;103139.97;6262576;22;20019;-86
2021/12/18 09:45:00;;;;;;;3.25;2.20;;;;;;;5.96;100.00;103135.63;6262764;22;20022;-86
2021/12/18 09:47:27;;;;;;;4.20;1.88;;;;;;;5.94;100.00;103138.16;6234644;22;20566;-86
2021/12/18 09:49:56;;;;;;;3.33;2.13;;;;;;;5.90;100.00;103140.50;6230568;22;20089;-85
2021/12/18 09:52:25;;;;;;;4.47;2.17;;;;;;;5.90;100.00;103137.91;6203872;22;20121;-86
2021/12/18 09:54:57;;;;;;;3.33;2.10;;;;;;;5.89;100.00;103129.22;6206105;22;20043;-85
2021/12/18 09:57:24;;;;;;;2.67;1.88;;;;;;;5.92;100.00;103125.88;6230906;22;20024;-86
2021/12/18 09:59:51;;;;;;;4.63;2.53;;;;;;;5.97;100.00;103119.16;6230952;22;20093;-87
2021/12/18 10:02:18;;;;;;;4.25;2.55;;;;;;;6.00;100.00;103121.97;6232216;22;20097;-85
2021/12/18 10:04:46;;;;;;;3.83;2.75;;;;;;;5.99;100.00;103117.59;6204901;22;20027;-85
2021/12/18 10:07:25;;;;;;;3.70;2.33;;;;;;;5.95;100.00;103113.03;6261489;22;20447;-85
2021/12/18 10:09:57;;;;;;;2.95;2.17;;;;;;;5.93;100.00;103118.16;6255972;22;20081;-87
2021/12/18 10:12:43;;;;;;;3.97;2.38;;;;;;;5.92;100.00;103111.16;6235433;22;20119;-86
2021/12/18 10:15:17;;;;;;;5.88;3.40;;;;;;;5.93;100.00;103104.25;6234868;22;20027;-85
2021/12/18 10:17:45;;;;;;;4.40;2.30;;;;;;;5.94;100.00;103104.34;6235082;22;20051;-86
2021/12/18 10:20:11;;;;;;;3.72;2.72;;;;;;;5.95;100.00;103097.44;6238083;22;20027;-85
2021/12/18 10:22:47;;;;;;;3.13;2.33;;;;;;;5.96;100.00;103100.09;6263289;22;20019;-86
2021/12/18 10:25:22;;;;;;;4.22;2.20;;;;;;;5.93;100.00;103094.75;6291519;22;20461;-86
2021/12/18 10:28:09;;;;;;;3.83;2.08;;;;;;;5.95;100.00;103095.72;6263742;22;20130;-86
2021/12/18 10:30:56;;;;;;;2.65;1.98;;;;;;;5.95;100.00;103082.72;6289635;22;20130;-86
2021/12/18 10:33:31;;;;;;;3.45;2.67;;;;;;;5.95;100.00;103084.44;6265668;22;20031;-87
2021/12/18 10:36:01;;;;;;;4.35;2.38;;;;;;;5.94;100.00;103077.44;6263390;22;20142;-87
2021/12/18 10:38:48;;;;;;;4.07;2.28;;;;;;;5.93;100.00;103081.75;6263232;22;20025;-86
2021/12/18 10:41:35;;;;;;;5.88;2.15;;;;;;;5.95;100.00;103084.44;6239154;22;20050;-86
2021/12/18 10:44:14;;;;;;;5.90;2.58;;;;;;;5.92;100.00;103079.09;6238240;22;20389;-86
2021/12/18 10:46:55;;;;;;;4.95;2.53;;;;;;;5.96;100.00;103074.09;6285684;22;20050;-85
2021/12/18 10:49:40;;;;;;;3.10;2.38;;;;;;;5.96;100.00;103068.91;6239749;22;20023;-86
2021/12/18 10:52:06;;;;;;;5.45;2.00;;;;;;;5.92;100.00;103072.16;6286538;22;20281;-85
2021/12/18 10:54:37;;;;;;;3.67;2.10;;;;;;;5.85;100.00;103067.47;6261747;22;20038;-84
2021/12/18 10:57:04;;;;;;;3.67;2.50;;;;;;;5.85;100.00;103070.06;6263369;22;20095;-83
2021/12/18 10:59:36;;;;;;;2.05;1.90;;;;;;;5.80;100.00;103062.06;6233634;22;20031;-84
2021/12/18 11:02:07;;;;;;;5.07;2.05;;;;;;;5.82;100.00;103058.66;6238347;22;20047;-86
2021/12/18 11:04:40;;;;;;;3.75;2.60;;;;;;;5.83;100.00;103050.91;6263595;22;20050;-86
2021/12/18 11:07:30;;;;;;;;;;;;;;;5.83;100.00;103050.00;6233783;22;20023;-86
2021/12/18 11:10:13;;;;;;;4.60;2.40;;;;;;;5.88;100.00;103048.53;6234817;22;19918;-86
2021/12/18 11:15:27;;;;;;;3.00;2.40;;;;;;;5.99;100.00;103044.78;6239386;22;20019;-84
2021/12/18 11:17:58;;;;;;;5.57;3.00;;;;;;;5.95;100.00;103048.03;6236500;22;20030;-86
2021/12/18 11:20:27;;;;;;;4.28;2.38;;;;;;;5.91;100.00;103041.78;6206413;22;20112;-86
2021/12/18 11:22:58;;;;;;;1.92;1.52;;;;;;;5.94;100.00;103043.63;6206922;22;20572;-85
2021/12/18 11:25:25;;;;;;;2.83;1.70;;;;;;;5.88;100.00;103043.31;6231166;22;20028;-87
2021/12/18 11:27:55;;;;;;;3.47;1.77;;;;;;;5.89;100.00;103042.53;6207221;22;20122;-86
2021/12/18 11:30:22;;;;;;;3.58;1.73;;;;;;;5.91;100.00;103040.91;6204048;22;20019;-86
2021/12/18 11:32:54;;;;;;;4.72;2.65;;;;;;;5.89;100.00;103032.13;6231815;22;20027;-84
2021/12/18 11:35:28;;;;;;;2.15;1.95;;;;;;;5.92;100.00;103035.78;6233092;22;20034;-86
2021/12/18 11:38:01;;;;;;;7.97;1.83;;;;;;;5.96;100.00;103029.03;6229127;22;20030;-86
2021/12/18 11:40:36;;;;;;;1.77;1.67;;;;;;;5.97;100.00;103021.28;6231629;22;20119;-86
2021/12/18 11:43:38;;;;;;;2.67;1.98;;;;;;;5.94;100.00;103015.03;6203075;22;20439;-86
2021/12/18 11:46:31;;;;;;;3.25;1.90;;;;;;;5.96;100.00;103013.41;6206703;22;20028;-85
2021/12/18 11:49:05;;;;;;;2.22;2.00;;;;;;;5.98;100.00;103011.81;6203272;22;20027;-85
2021/12/18 11:51:33;;;;;;;1.77;1.67;;;;;;;5.97;100.00;103008.28;6205833;22;20026;-86
2021/12/18 11:54:04;;;;;;;1.20;1.15;;;;;;;5.99;100.00;103002.31;6204882;22;20364;-85
2021/12/18 11:56:49;;;;;;;1.73;1.63;;;;;;;6.00;100.00;103010.19;6234343;22;20016;-86
2021/12/18 11:59:45;;;;;;;2.45;2.15;;;;;;;6.03;100.00;103001.63;6208359;22;20020;-85
2021/12/18 12:02:13;;;;;;;2.63;1.58;;;;;;;6.05;100.00;103008.69;6229768;22;20023;-85
2021/12/18 12:05:05;;;;;;;4.50;2.60;;;;;;;6.06;100.00;103000.09;6232008;22;20493;-85
2021/12/18 12:07:33;;;;;;;1.80;1.70;;;;;;;6.10;100.00;103006.28;6217129;22;20015;-86
2021/12/18 12:10:21;;;;;;;2.22;1.60;;;;;;;6.13;100.00;103001.25;6207795;22;20023;-85
2021/12/18 12:12:58;;;;;;;2.55;2.35;;;;;;;6.18;100.00;103004.06;6205061;22;20044;-86
2021/12/18 12:15:30;;;;;;;1.83;1.67;;;;;;;6.20;100.00;103007.63;6210177;22;20081;-85
2021/12/18 12:18:04;;;;;;;3.10;1.65;;;;;;;6.18;100.00;102991.97;6237644;22;20073;-85
2021/12/18 12:20:41;;;;;;;2.33;1.30;;;;;;;6.20;100.00;102995.50;6208669;22;20024;-86
2021/12/18 12:23:10;;;;;;;3.00;1.80;;;;;;;6.21;100.00;102989.50;6213890;22;20027;-86
2021/12/18 12:25:50;;;;;;;2.33;1.42;;;;;;;6.21;100.00;102989.50;6213012;22;20028;-86
2021/12/18 12:28:25;;;;;;;1.80;1.60;;;;;;;6.20;100.00;102992.91;6237024;22;20077;-86